sensor_id;sensor_type;location;lat;lon;timestamp;pressure;altitude;pressure_sealevel;temperature;humidity
59073;BME280;44859;51.934;15.554;2024-03-02T00:10:07;98874.80;;;8.43;100.00
59073;BME280;44859;51.934;15.554;2024-03-02T00:15:49;98869.92;;;8.39;100.00
59073;BME280;44859;51.934;15.554;2024-03-02T00:21:38;98876.85;;;8.38;100.00
59073;BME280;44859;51.934;15.554;2024-03-02T00:32:38;98869.01;;;8.34;100.00
59073;BME280;44859;51.934;15.554;2024-03-02T00:38:05;98866.55;;;8.34;100.00
59073;BME280;44859;51.934;15.554;2024-03-02T00:54:29;98866.44;;;8.29;100.00
59073;BME280;44859;51.934;15.554;2024-03-02T00:59:36;98858.36;;;8.31;100.00
59073;BME280;44859;51.934;15.554;2024-03-02T01:04:43;98856.79;;;8.30;100.00
59073;BME280;44859;51.934;15.554;2024-03-02T01:09:50;98858.17;;;8.31;100.00
59073;BME280;44859;51.934;15.554;2024-03-02T01:14:57;98858.63;;;8.32;100.00
59073;BME280;44859;51.934;15.554;2024-03-02T01:20:24;98856.41;;;8.34;100.00
59073;BME280;44859;51.934;15.554;2024-03-02T01:25:51;98854.74;;;8.35;100.00
59073;BME280;44859;51.934;15.554;2024-03-02T01:31:30;98852.02;;;8.37;100.00
59073;BME280;44859;51.934;15.554;2024-03-02T01:37:10;98851.88;;;8.40;100.00
59073;BME280;44859;51.934;15.554;2024-03-02T01:48:15;98852.46;;;8.42;100.00
59073;BME280;44859;51.934;15.554;2024-03-02T01:53:23;98844.21;;;8.42;100.00
59073;BME280;44859;51.934;15.554;2024-03-02T01:59:07;98845.79;;;8.42;100.00
59073;BME280;44859;51.934;15.554;2024-03-02T02:04:30;98838.94;;;8.43;100.00
59073;BME280;44859;51.934;15.554;2024-03-02T02:10:03;98839.98;;;8.44;100.00
59073;BME280;44859;51.934;15.554;2024-03-02T02:15:26;98831.51;;;8.45;100.00
59073;BME280;44859;51.934;15.554;2024-03-02T02:20:55;98827.43;;;8.46;100.00
59073;BME280;44859;51.934;15.554;2024-03-02T02:26:21;98826.16;;;8.46;100.00
59073;BME280;44859;51.934;15.554;2024-03-02T02:32:03;98819.64;;;8.48;100.00
59073;BME280;44859;51.934;15.554;2024-03-02T02:37:09;98825.67;;;8.49;100.00
59073;BME280;44859;51.934;15.554;2024-03-02T02:42:16;98822.92;;;8.51;100.00
59073;BME280;44859;51.934;15.554;2024-03-02T02:47:41;98821.79;;;8.53;100.00
59073;BME280;44859;51.934;15.554;2024-03-02T02:58:35;98819.04;;;8.55;100.00
59073;BME280;44859;51.934;15.554;2024-03-02T03:04:22;98813.09;;;8.55;100.00
59073;BME280;44859;51.934;15.554;2024-03-02T03:09:46;98810.67;;;8.55;100.00
59073;BME280;44859;51.934;15.554;2024-03-02T03:15:16;98805.62;;;8.57;100.00
59073;BME280;44859;51.934;15.554;2024-03-02T03:20:24;98807.27;;;8.56;100.00
59073;BME280;44859;51.934;15.554;2024-03-02T03:25:51;98808.80;;;8.57;100.00
59073;BME280;44859;51.934;15.554;2024-03-02T03:30:55;98810.92;;;8.56;100.00
59073;BME280;44859;51.934;15.554;2024-03-02T03:42:09;98815.89;;;8.58;100.00
59073;BME280;44859;51.934;15.554;2024-03-02T03:47:42;98807.94;;;8.59;100.00
59073;BME280;44859;51.934;15.554;2024-03-02T03:53:29;98807.64;;;8.61;100.00
59073;BME280;44859;51.934;15.554;2024-03-02T03:58:36;98806.58;;;8.62;100.00
59073;BME280;44859;51.934;15.554;2024-03-02T04:04:11;98811.83;;;8.62;100.00
59073;BME280;44859;51.934;15.554;2024-03-02T04:09:55;98812.98;;;8.63;100.00
59073;BME280;44859;51.934;15.554;2024-03-02T04:15:22;98812.92;;;8.64;100.00
59073;BME280;44859;51.934;15.554;2024-03-02T04:21:07;98816.51;;;8.66;100.00
59073;BME280;44859;51.934;15.554;2024-03-02T04:26:15;98822.30;;;8.66;100.00
59073;BME280;44859;51.934;15.554;2024-03-02T04:31:26;98826.17;;;8.66;100.00
59073;BME280;44859;51.934;15.554;2024-03-02T04:36:35;98838.04;;;8.67;100.00
59073;BME280;44859;51.934;15.554;2024-03-02T04:42:02;98838.39;;;8.66;100.00
59073;BME280;44859;51.934;15.554;2024-03-02T04:47:12;98841.84;;;8.67;100.00
59073;BME280;44859;51.934;15.554;2024-03-02T04:52:20;98840.20;;;8.68;100.00
59073;BME280;44859;51.934;15.554;2024-03-02T04:58:08;98842.61;;;8.69;100.00
59073;BME280;44859;51.934;15.554;2024-03-02T05:03:52;98848.77;;;8.68;100.00
59073;BME280;44859;51.934;15.554;2024-03-02T05:20:07;98867.90;;;8.64;100.00
59073;BME280;44859;51.934;15.554;2024-03-02T05:25:34;98877.45;;;8.62;100.00
59073;BME280;44859;51.934;15.554;2024-03-02T05:31:01;98877.31;;;8.65;100.00
59073;BME280;44859;51.934;15.554;2024-03-02T05:36:30;98888.21;;;8.67;100.00
59073;BME280;44859;51.934;15.554;2024-03-02T05:41:37;98895.58;;;8.70;100.00
59073;BME280;44859;51.934;15.554;2024-03-02T05:47:05;98901.84;;;8.71;100.00
59073;BME280;44859;51.934;15.554;2024-03-02T05:52:25;98910.17;;;8.72;100.00
59073;BME280;44859;51.934;15.554;2024-03-02T05:58:12;98920.64;;;8.73;100.00
59073;BME280;44859;51.934;15.554;2024-03-02T06:03:29;98925.67;;;8.73;100.00
59073;BME280;44859;51.934;15.554;2024-03-02T06:08:33;98926.40;;;8.73;100.00
59073;BME280;44859;51.934;15.554;2024-03-02T06:13:40;98929.21;;;8.73;100.00
59073;BME280;44859;51.934;15.554;2024-03-02T06:18:46;98929.28;;;8.72;100.00
59073;BME280;44859;51.934;15.554;2024-03-02T06:23:59;98925.04;;;8.72;100.00
59073;BME280;44859;51.934;15.554;2024-03-02T06:29:04;98918.67;;;8.73;100.00
59073;BME280;44859;51.934;15.554;2024-03-02T06:34:31;98915.47;;;8.74;100.00
59073;BME280;44859;51.934;15.554;2024-03-02T06:45:41;98930.47;;;8.76;100.00
59073;BME280;44859;51.934;15.554;2024-03-02T06:51:00;98929.35;;;8.77;100.00
59073;BME280;44859;51.934;15.554;2024-03-02T07:07:32;98944.47;;;8.82;100.00
59073;BME280;44859;51.934;15.554;2024-03-02T07:12:39;98952.14;;;8.83;100.00
59073;BME280;44859;51.934;15.554;2024-03-02T07:17:43;98956.63;;;8.84;100.00
59073;BME280;44859;51.934;15.554;2024-03-02T07:23:02;98960.06;;;8.88;100.00
59073;BME280;44859;51.934;15.554;2024-03-02T07:28:26;98958.39;;;8.93;100.00
59073;BME280;44859;51.934;15.554;2024-03-02T07:39:39;98959.59;;;9.00;100.00
59073;BME280;44859;51.934;15.554;2024-03-02T07:44:52;98965.91;;;9.03;100.00
59073;BME280;44859;51.934;15.554;2024-03-02T07:50:27;98968.89;;;9.09;100.00
59073;BME280;44859;51.934;15.554;2024-03-02T07:55:49;98976.53;;;9.13;100.00
59073;BME280;44859;51.934;15.554;2024-03-02T08:01:18;98985.67;;;9.16;100.00
59073;BME280;44859;51.934;15.554;2024-03-02T08:06:22;98983.20;;;9.16;100.00
59073;BME280;44859;51.934;15.554;2024-03-02T08:11:29;98986.17;;;9.16;100.00
59073;BME280;44859;51.934;15.554;2024-03-02T08:22:13;98996.17;;;9.19;100.00
59073;BME280;44859;51.934;15.554;2024-03-02T08:27:16;98998.00;;;9.24;100.00
59073;BME280;44859;51.934;15.554;2024-03-02T08:38:06;99009.02;;;9.34;100.00
59073;BME280;44859;51.934;15.554;2024-03-02T08:43:52;99020.68;;;9.42;100.00
59073;BME280;44859;51.934;15.554;2024-03-02T08:48:54;99022.68;;;9.47;100.00
59073;BME280;44859;51.934;15.554;2024-03-02T08:54:03;99019.77;;;9.46;100.00
59073;BME280;44859;51.934;15.554;2024-03-02T08:59:10;99018.91;;;9.48;100.00
59073;BME280;44859;51.934;15.554;2024-03-02T09:04:15;99017.11;;;9.58;100.00
59073;BME280;44859;51.934;15.554;2024-03-02T09:09:18;99016.73;;;9.71;100.00
59073;BME280;44859;51.934;15.554;2024-03-02T09:14:31;99020.85;;;9.88;100.00
59073;BME280;44859;51.934;15.554;2024-03-02T09:19:39;99028.33;;;10.01;100.00
59073;BME280;44859;51.934;15.554;2024-03-02T09:24:48;99029.56;;;10.13;100.00
59073;BME280;44859;51.934;15.554;2024-03-02T09:30:15;99030.84;;;10.15;100.00
59073;BME280;44859;51.934;15.554;2024-03-02T09:35:29;99032.18;;;10.17;100.00
59073;BME280;44859;51.934;15.554;2024-03-02T09:41:17;99029.39;;;10.22;100.00
59073;BME280;44859;51.934;15.554;2024-03-02T09:46:26;99034.48;;;10.25;100.00
59073;BME280;44859;51.934;15.554;2024-03-02T09:51:47;99034.11;;;10.22;100.00
59073;BME280;44859;51.934;15.554;2024-03-02T10:09:09;99049.94;;;10.75;100.00
59073;BME280;44859;51.934;15.554;2024-03-02T10:14:18;99052.15;;;10.99;100.00
59073;BME280;44859;51.934;15.554;2024-03-02T10:19:45;99048.18;;;11.21;100.00
59073;BME280;44859;51.934;15.554;2024-03-02T10:25:27;99044.61;;;11.24;100.00
59073;BME280;44859;51.934;15.554;2024-03-02T10:31:11;99036.90;;;11.35;100.00
59073;BME280;44859;51.934;15.554;2024-03-02T10:36:19;99033.02;;;11.54;100.00
59073;BME280;44859;51.934;15.554;2024-03-02T10:41:35;99028.63;;;11.73;100.00
59073;BME280;44859;51.934;15.554;2024-03-02T10:46:39;99032.65;;;11.84;100.00
59073;BME280;44859;51.934;15.554;2024-03-02T10:57:53;99026.41;;;11.70;98.15
59073;BME280;44859;51.934;15.554;2024-03-02T11:03:32;99029.52;;;11.71;98.64
59073;BME280;44859;51.934;15.554;2024-03-02T11:08:54;99024.76;;;11.63;97.30
59073;BME280;44859;51.934;15.554;2024-03-02T11:14:24;99026.77;;;11.64;97.05
59073;BME280;44859;51.934;15.554;2024-03-02T11:19:40;99021.72;;;11.76;96.88
59073;BME280;44859;51.934;15.554;2024-03-02T11:24:59;99014.70;;;11.87;96.14
59073;BME280;44859;51.934;15.554;2024-03-02T11:41:16;99001.15;;;12.42;93.07
59073;BME280;44859;51.934;15.554;2024-03-02T11:46:26;99001.47;;;12.53;91.47
59073;BME280;44859;51.934;15.554;2024-03-02T11:52:00;98998.38;;;12.57;90.95
59073;BME280;44859;51.934;15.554;2024-03-02T11:57:33;98995.73;;;12.82;88.68
59073;BME280;44859;51.934;15.554;2024-03-02T12:03:07;98996.09;;;13.19;87.25
59073;BME280;44859;51.934;15.554;2024-03-02T12:08:12;98991.83;;;13.32;85.56
59073;BME280;44859;51.934;15.554;2024-03-02T12:13:56;98991.58;;;13.38;83.72
59073;BME280;44859;51.934;15.554;2024-03-02T12:19:26;98989.98;;;13.43;81.85
59073;BME280;44859;51.934;15.554;2024-03-02T12:25:16;98988.27;;;13.88;81.00
59073;BME280;44859;51.934;15.554;2024-03-02T12:30:58;98992.69;;;13.60;80.12
59073;BME280;44859;51.934;15.554;2024-03-02T12:47:54;98992.63;;;13.06;79.67
59073;BME280;44859;51.934;15.554;2024-03-02T12:52:58;98988.87;;;12.82;80.11
59073;BME280;44859;51.934;15.554;2024-03-02T12:58:05;98988.35;;;12.67;80.81
59073;BME280;44859;51.934;15.554;2024-03-02T13:03:51;98992.05;;;12.44;81.86
59073;BME280;44859;51.934;15.554;2024-03-02T13:15:15;98997.15;;;12.31;83.14
59073;BME280;44859;51.934;15.554;2024-03-02T13:21:19;98994.63;;;12.37;82.99
59073;BME280;44859;51.934;15.554;2024-03-02T13:26:37;98988.58;;;12.36;83.48
59073;BME280;44859;51.934;15.554;2024-03-02T13:32:44;98984.36;;;12.33;83.62
59073;BME280;44859;51.934;15.554;2024-03-02T13:37:48;98984.97;;;12.37;83.54
59073;BME280;44859;51.934;15.554;2024-03-02T13:43:37;98985.95;;;12.33;83.38
59073;BME280;44859;51.934;15.554;2024-03-02T14:00:40;98983.19;;;12.60;82.99
59073;BME280;44859;51.934;15.554;2024-03-02T14:05:43;98989.48;;;12.71;83.11
59073;BME280;44859;51.934;15.554;2024-03-02T14:11:33;98987.86;;;12.71;82.73
59073;BME280;44859;51.934;15.554;2024-03-02T14:17:20;98988.14;;;12.70;82.73
59073;BME280;44859;51.934;15.554;2024-03-02T14:40:58;98988.34;;;12.47;82.51
59073;BME280;44859;51.934;15.554;2024-03-02T14:46:43;98993.05;;;12.37;82.20
59073;BME280;44859;51.934;15.554;2024-03-02T14:52:08;98991.04;;;12.31;81.66
59073;BME280;44859;51.934;15.554;2024-03-02T15:03:26;98979.52;;;12.29;81.52
59073;BME280;44859;51.934;15.554;2024-03-02T15:15:05;98974.36;;;12.22;81.05
59073;BME280;44859;51.934;15.554;2024-03-02T15:20:11;98970.22;;;12.16;80.32
59073;BME280;44859;51.934;15.554;2024-03-02T15:25:36;98968.73;;;12.12;80.24
59073;BME280;44859;51.934;15.554;2024-03-02T15:30:48;98968.27;;;12.09;80.12
59073;BME280;44859;51.934;15.554;2024-03-02T15:36:07;98973.48;;;12.01;79.70
59073;BME280;44859;51.934;15.554;2024-03-02T15:41:58;98971.69;;;11.94;79.92
59073;BME280;44859;51.934;15.554;2024-03-02T15:47:22;98972.02;;;11.89;80.22
59073;BME280;44859;51.934;15.554;2024-03-02T15:52:50;98976.85;;;11.79;80.62
59073;BME280;44859;51.934;15.554;2024-03-02T15:58:32;98973.48;;;11.69;81.14
59073;BME280;44859;51.934;15.554;2024-03-02T16:03:58;98977.94;;;11.60;81.74
59073;BME280;44859;51.934;15.554;2024-03-02T16:09:36;98981.10;;;11.53;82.02
59073;BME280;44859;51.934;15.554;2024-03-02T16:15:04;98975.14;;;11.44;82.49
59073;BME280;44859;51.934;15.554;2024-03-02T16:20:08;98984.67;;;11.38;82.98
59073;BME280;44859;51.934;15.554;2024-03-02T16:25:14;98991.83;;;11.33;83.36
59073;BME280;44859;51.934;15.554;2024-03-02T16:30:49;98985.70;;;11.28;83.79
59073;BME280;44859;51.934;15.554;2024-03-02T16:36:06;98985.15;;;11.23;84.12
59073;BME280;44859;51.934;15.554;2024-03-02T16:41:12;98981.16;;;11.13;85.01
59073;BME280;44859;51.934;15.554;2024-03-02T16:46:16;98977.00;;;11.07;85.01
59073;BME280;44859;51.934;15.554;2024-03-02T16:51:25;98981.36;;;10.99;85.58
59073;BME280;44859;51.934;15.554;2024-03-02T16:56:42;98985.02;;;10.91;85.92
59073;BME280;44859;51.934;15.554;2024-03-02T17:01:49;98981.90;;;10.85;86.28
59073;BME280;44859;51.934;15.554;2024-03-02T17:06:56;98977.11;;;10.80;86.66
59073;BME280;44859;51.934;15.554;2024-03-02T17:12:00;98977.21;;;10.75;87.30
59073;BME280;44859;51.934;15.554;2024-03-02T17:17:10;98980.00;;;10.70;87.35
59073;BME280;44859;51.934;15.554;2024-03-02T17:22:14;98980.40;;;10.69;87.60
59073;BME280;44859;51.934;15.554;2024-03-02T17:27:18;98986.65;;;10.67;87.71
59073;BME280;44859;51.934;15.554;2024-03-02T17:32:22;98989.55;;;10.63;88.03
59073;BME280;44859;51.934;15.554;2024-03-02T17:37:46;98990.02;;;10.55;88.61
59073;BME280;44859;51.934;15.554;2024-03-02T17:42:50;98994.41;;;10.47;88.96
59073;BME280;44859;51.934;15.554;2024-03-02T17:47:56;98995.98;;;10.44;89.25
59073;BME280;44859;51.934;15.554;2024-03-02T17:53:12;98995.56;;;10.39;89.57
59073;BME280;44859;51.934;15.554;2024-03-02T17:58:16;98993.30;;;10.37;89.75
59073;BME280;44859;51.934;15.554;2024-03-02T18:03:43;98987.50;;;10.30;90.14
59073;BME280;44859;51.934;15.554;2024-03-02T18:08:47;98990.20;;;10.26;90.37
59073;BME280;44859;51.934;15.554;2024-03-02T18:14:01;98994.32;;;10.21;90.57
59073;BME280;44859;51.934;15.554;2024-03-02T18:19:32;98993.67;;;10.21;90.73
59073;BME280;44859;51.934;15.554;2024-03-02T18:24:36;98988.38;;;10.18;91.10
59073;BME280;44859;51.934;15.554;2024-03-02T18:29:51;98985.25;;;10.15;91.30
59073;BME280;44859;51.934;15.554;2024-03-02T18:35:02;98986.70;;;10.14;91.97
59073;BME280;44859;51.934;15.554;2024-03-02T18:40:06;98985.42;;;10.12;91.94
59073;BME280;44859;51.934;15.554;2024-03-02T18:45:10;98986.01;;;10.08;92.33
59073;BME280;44859;51.934;15.554;2024-03-02T18:50:22;98978.65;;;10.05;92.53
59073;BME280;44859;51.934;15.554;2024-03-02T18:56:09;98976.36;;;9.99;92.85
59073;BME280;44859;51.934;15.554;2024-03-02T19:01:15;98979.63;;;9.91;93.15
59073;BME280;44859;51.934;15.554;2024-03-02T19:06:24;98981.44;;;9.81;93.55
59073;BME280;44859;51.934;15.554;2024-03-02T19:11:39;98985.42;;;9.76;94.13
59073;BME280;44859;51.934;15.554;2024-03-02T19:16:45;98993.09;;;9.68;94.22
59073;BME280;44859;51.934;15.554;2024-03-02T19:21:48;98994.18;;;9.64;94.72
59073;BME280;44859;51.934;15.554;2024-03-02T19:27:10;98989.74;;;9.62;95.64
59073;BME280;44859;51.934;15.554;2024-03-02T19:32:18;98990.27;;;9.59;95.94
59073;BME280;44859;51.934;15.554;2024-03-02T19:37:25;98987.30;;;9.55;96.25
59073;BME280;44859;51.934;15.554;2024-03-02T19:42:31;98990.91;;;9.50;96.77
59073;BME280;44859;51.934;15.554;2024-03-02T19:47:35;98987.80;;;9.47;97.02
59073;BME280;44859;51.934;15.554;2024-03-02T19:52:44;98986.25;;;9.43;97.83
59073;BME280;44859;51.934;15.554;2024-03-02T19:57:47;98988.54;;;9.40;97.95
59073;BME280;44859;51.934;15.554;2024-03-02T20:02:54;98992.04;;;9.37;98.51
59073;BME280;44859;51.934;15.554;2024-03-02T20:08:07;98993.30;;;9.30;98.79
59073;BME280;44859;51.934;15.554;2024-03-02T20:13:11;98989.08;;;9.24;99.23
59073;BME280;44859;51.934;15.554;2024-03-02T20:18:17;98993.45;;;9.21;99.61
59073;BME280;44859;51.934;15.554;2024-03-02T20:23:25;98991.67;;;9.15;99.70
59073;BME280;44859;51.934;15.554;2024-03-02T20:28:29;98993.31;;;9.08;99.91
59073;BME280;44859;51.934;15.554;2024-03-02T20:33:33;98988.41;;;9.04;100.00
59073;BME280;44859;51.934;15.554;2024-03-02T20:38:48;98988.13;;;9.00;100.00
59073;BME280;44859;51.934;15.554;2024-03-02T20:43:52;98984.87;;;8.95;100.00
59073;BME280;44859;51.934;15.554;2024-03-02T20:48:59;98983.88;;;8.91;100.00
59073;BME280;44859;51.934;15.554;2024-03-02T20:54:04;98984.77;;;8.88;100.00
59073;BME280;44859;51.934;15.554;2024-03-02T20:59:20;98984.27;;;8.87;100.00
59073;BME280;44859;51.934;15.554;2024-03-02T21:04:49;98986.16;;;8.88;100.00
59073;BME280;44859;51.934;15.554;2024-03-02T21:09:55;98987.98;;;8.83;100.00
59073;BME280;44859;51.934;15.554;2024-03-02T21:15:11;98986.14;;;8.79;100.00
59073;BME280;44859;51.934;15.554;2024-03-02T21:20:14;98985.92;;;8.79;100.00
59073;BME280;44859;51.934;15.554;2024-03-02T21:25:24;98979.33;;;8.81;100.00
59073;BME280;44859;51.934;15.554;2024-03-02T21:30:40;98977.69;;;8.86;100.00
59073;BME280;44859;51.934;15.554;2024-03-02T21:35:45;98973.84;;;8.92;100.00
59073;BME280;44859;51.934;15.554;2024-03-02T21:40:56;98970.58;;;8.97;100.00
59073;BME280;44859;51.934;15.554;2024-03-02T21:46:10;98973.46;;;9.02;100.00
59073;BME280;44859;51.934;15.554;2024-03-02T21:51:20;98971.38;;;9.08;100.00
59073;BME280;44859;51.934;15.554;2024-03-02T21:56:28;98972.24;;;9.12;100.00
59073;BME280;44859;51.934;15.554;2024-03-02T22:01:31;98966.23;;;9.16;100.00
59073;BME280;44859;51.934;15.554;2024-03-02T22:06:45;98968.33;;;9.16;100.00
59073;BME280;44859;51.934;15.554;2024-03-02T22:11:49;98965.36;;;9.16;100.00
59073;BME280;44859;51.934;15.554;2024-03-02T22:16:53;98960.63;;;9.16;100.00
59073;BME280;44859;51.934;15.554;2024-03-02T22:22:17;98958.98;;;9.17;100.00
59073;BME280;44859;51.934;15.554;2024-03-02T22:27:30;98957.29;;;9.23;100.00
59073;BME280;44859;51.934;15.554;2024-03-02T22:32:39;98959.31;;;9.27;100.00
59073;BME280;44859;51.934;15.554;2024-03-02T22:38:09;98954.25;;;9.23;100.00
59073;BME280;44859;51.934;15.554;2024-03-02T22:43:15;98954.81;;;9.26;100.00
59073;BME280;44859;51.934;15.554;2024-03-02T22:48:24;98956.18;;;9.26;100.00
59073;BME280;44859;51.934;15.554;2024-03-02T22:53:35;98958.03;;;9.25;100.00
59073;BME280;44859;51.934;15.554;2024-03-02T22:59:01;98961.98;;;9.20;100.00
59073;BME280;44859;51.934;15.554;2024-03-02T23:04:06;98960.88;;;9.12;100.00
59073;BME280;44859;51.934;15.554;2024-03-02T23:09:10;98957.90;;;9.05;100.00
59073;BME280;44859;51.934;15.554;2024-03-02T23:14:17;98960.53;;;9.02;100.00
59073;BME280;44859;51.934;15.554;2024-03-02T23:19:41;98954.86;;;9.00;100.00
59073;BME280;44859;51.934;15.554;2024-03-02T23:25:46;98948.33;;;8.97;100.00
59073;BME280;44859;51.934;15.554;2024-03-02T23:31:04;98949.48;;;8.96;100.00
59073;BME280;44859;51.934;15.554;2024-03-02T23:36:16;98946.64;;;8.93;100.00
59073;BME280;44859;51.934;15.554;2024-03-02T23:41:24;98944.94;;;8.92;100.00
59073;BME280;44859;51.934;15.554;2024-03-02T23:46:31;98947.45;;;8.92;100.00
59073;BME280;44859;51.934;15.554;2024-03-02T23:51:40;98942.20;;;8.91;100.00
59073;BME280;44859;51.934;15.554;2024-03-02T23:56:49;98934.77;;;8.89;100.00
